Time;durP1;ratioP1;P1;durP2;ratioP2;P2;SDS_P1;SDS_P2;PMS_P1;PMS_P2;Temp;Humidity;BMP_temperature;BMP_pressure;BME280_temperature;BME280_humidity;BME280_pressure;Samples;Min_cycle;Max_cycle;Signal;HPM_P1;HPM_P2
2022/12/21 00:01:23;;;;;;;24.15;14.00;;;20.30;34.50;;;;;;5067255;28;20480;-67
2022/12/21 00:03:56;;;;;;;23.10;13.02;;;20.30;34.50;;;;;;5068210;28;20048;-68
2022/12/21 00:06:25;;;;;;;22.10;13.05;;;20.30;34.40;;;;;;5067728;28;20057;-68
2022/12/21 00:08:55;;;;;;;22.95;13.40;;;20.30;34.50;;;;;;5068219;28;20044;-68
2022/12/21 00:11:23;;;;;;;22.63;13.38;;;20.30;34.50;;;;;;5049689;28;20495;-68
2022/12/21 00:13:51;;;;;;;23.48;13.90;;;20.30;34.40;;;;;;5066408;28;20052;-68
2022/12/21 00:16:21;;;;;;;21.45;13.32;;;20.30;34.40;;;;;;5049252;28;20484;-68
2022/12/21 00:18:49;;;;;;;26.40;13.90;;;20.30;34.40;;;;;;5043787;28;20041;-68
2022/12/21 00:21:25;;;;;;;21.30;12.52;;;20.30;34.50;;;;;;5066094;28;20051;-68
2022/12/21 00:23:54;;;;;;;23.15;14.10;;;20.30;34.40;;;;;;5067597;28;20131;-68
2022/12/21 00:26:23;;;;;;;24.02;13.73;;;20.30;34.40;;;;;;5067383;28;20045;-68
2022/12/21 00:28:53;;;;;;;22.63;12.93;;;20.30;34.40;;;;;;5066524;28;20052;-68
2022/12/21 00:31:25;;;;;;;23.58;14.15;;;20.30;34.40;;;;;;5067419;28;20267;-68
2022/12/21 00:33:54;;;;;;;22.05;13.30;;;20.30;34.40;;;;;;5067431;28;20064;-68
2022/12/21 00:36:23;;;;;;;23.42;13.77;;;20.30;34.40;;;;;;5066749;28;20045;-68
2022/12/21 00:38:50;;;;;;;23.75;13.13;;;20.30;34.40;;;;;;5067938;28;20048;-68
2022/12/21 00:41:21;;;;;;;22.75;13.00;;;20.20;34.40;;;;;;5071011;28;20234;-68
2022/12/21 00:43:52;;;;;;;22.10;13.00;;;20.20;34.40;;;;;;5071244;28;20380;-68
2022/12/21 00:46:23;;;;;;;20.08;12.13;;;20.20;34.40;;;;;;5071265;28;20044;-68
2022/12/21 00:48:51;;;;;;;23.65;12.50;;;20.20;34.40;;;;;;5053050;28;20094;-68
2022/12/21 00:51:23;;;;;;;22.33;13.55;;;20.20;34.40;;;;;;5069388;28;20510;-68
2022/12/21 00:53:53;;;;;;;20.10;12.57;;;20.20;34.40;;;;;;5068345;28;20041;-68
2022/12/21 00:56:21;;;;;;;22.02;13.35;;;20.20;34.30;;;;;;5053066;28;20485;-68
2022/12/21 00:58:48;;;;;;;19.75;12.20;;;20.20;34.40;;;;;;5070526;28;20045;-68
2022/12/21 01:01:19;;;;;;;21.13;12.80;;;20.20;34.40;;;;;;5069958;28;20048;-68
2022/12/21 01:03:47;;;;;;;21.63;12.40;;;20.20;34.40;;;;;;5052887;28;20128;-68
2022/12/21 01:06:17;;;;;;;20.25;12.25;;;20.20;34.40;;;;;;5070373;28;20578;-68
2022/12/21 01:08:44;;;;;;;23.42;14.15;;;20.20;34.40;;;;;;5070522;28;20059;-68
2022/12/21 01:11:13;;;;;;;20.20;12.60;;;20.20;34.40;;;;;;5070846;28;20049;-68
2022/12/21 01:13:41;;;;;;;21.80;13.02;;;20.20;34.40;;;;;;5036030;28;20131;-68
2022/12/21 01:16:14;;;;;;;20.92;12.30;;;20.20;34.30;;;;;;5070578;28;20602;-68
2022/12/21 01:18:42;;;;;;;21.70;12.45;;;20.20;34.30;;;;;;5051756;28;20075;-67
2022/12/21 01:21:22;;;;;;;20.60;12.88;;;20.20;34.30;;;;;;5070776;28;20055;-68
2022/12/21 01:23:50;;;;;;;21.08;12.65;;;20.20;34.30;;;;;;5065394;28;20094;-69
2022/12/21 01:26:17;;;;;;;21.30;11.77;;;20.20;34.30;;;;;;5070477;28;20127;-68
2022/12/21 01:28:45;;;;;;;23.13;13.25;;;20.20;34.30;;;;;;5070467;28;20131;-68
2022/12/21 01:31:12;;;;;;;22.60;13.93;;;20.20;34.20;;;;;;5069646;28;20131;-68
2022/12/21 01:33:39;;;;;;;20.58;12.88;;;20.20;34.20;;;;;;5070343;28;20044;-68
2022/12/21 01:36:09;;;;;;;20.13;12.40;;;20.20;34.20;;;;;;5070160;28;20076;-68
2022/12/21 01:38:39;;;;;;;21.00;12.05;;;20.20;34.30;;;;;;5069995;28;20140;-68
2022/12/21 01:41:08;;;;;;;22.08;13.20;;;20.20;34.20;;;;;;5070197;28;20051;-67
2022/12/21 01:43:54;;;;;;;19.50;12.03;;;20.20;34.20;;;;;;5069634;28;20041;-68
2022/12/21 01:46:30;;;;;;;19.15;11.70;;;20.30;34.30;;;;;;5070383;28;20053;-68
2022/12/21 01:49:09;;;;;;;19.08;12.30;;;20.20;34.20;;;;;;5069063;28;20448;-68
2022/12/21 01:51:37;;;;;;;22.52;12.70;;;20.20;34.20;;;;;;5069096;28;20045;-68
2022/12/21 01:54:33;;;;;;;19.60;12.63;;;20.20;34.20;;;;;;5070087;28;20051;-68
2022/12/21 01:57:04;;;;;;;19.50;12.20;;;20.20;34.20;;;;;;5065319;28;20049;-68
2022/12/21 01:59:36;;;;;;;19.63;12.65;;;20.20;34.20;;;;;;5051902;28;20131;-68
2022/12/21 02:02:09;;;;;;;18.65;10.95;;;20.20;34.20;;;;;;5052156;28;20344;-68
2022/12/21 02:04:36;;;;;;;21.70;12.63;;;20.20;34.30;;;;;;5070097;28;20098;-67
2022/12/21 02:07:03;;;;;;;20.25;11.88;;;20.20;34.20;;;;;;5051426;28;20488;-68
2022/12/21 02:09:36;;;;;;;20.38;12.57;;;20.20;34.20;;;;;;5068673;28;20446;-68
2022/12/21 02:12:07;;;;;;;20.77;12.07;;;20.20;34.20;;;;;;5069534;28;20124;-68
2022/12/21 02:14:39;;;;;;;19.70;11.98;;;20.20;34.20;;;;;;5068556;28;20522;-68
2022/12/21 02:17:28;;;;;;;22.23;12.80;;;20.20;34.20;;;;;;5069784;28;20508;-67
2022/12/21 02:20:35;;;;;;;19.02;12.50;;;20.20;34.20;;;;;;5052487;28;20079;-68
2022/12/21 02:23:42;;;;;;;18.75;11.50;;;20.20;34.30;;;;;;5069819;28;20040;-68
2022/12/21 02:26:40;;;;;;;20.88;12.10;;;20.20;34.20;;;;;;5068664;28;20135;-68
2022/12/21 02:29:47;;;;;;;20.23;12.48;;;20.20;34.20;;;;;;5053051;28;20048;-68
2022/12/21 02:32:38;;;;;;;18.30;11.10;;;20.20;34.20;;;;;;5068297;28;20124;-68
2022/12/21 02:35:30;;;;;;;19.42;12.35;;;20.20;34.20;;;;;;5051766;28;20049;-68
2022/12/21 02:38:21;;;;;;;19.25;11.23;;;20.20;34.20;;;;;;5068556;28;20127;-67
2022/12/21 02:41:23;;;;;;;18.70;11.63;;;20.20;34.20;;;;;;5068652;28;20048;-68
2022/12/21 02:44:15;;;;;;;18.65;11.57;;;20.10;34.20;;;;;;5068724;28;20059;-67
2022/12/21 02:46:56;;;;;;;17.00;11.00;;;20.20;34.20;;;;;;5069001;28;20052;-68
2022/12/21 02:49:37;;;;;;;17.25;10.85;;;20.20;34.30;;;;;;5068818;28;20059;-68
2022/12/21 02:52:07;;;;;;;;;;;20.10;34.20;;;;;;5069426;28;20562;-69
2022/12/21 02:54:38;;;;;;;19.17;12.10;;;20.10;34.20;;;;;;5068409;28;19924;-68
2022/12/21 02:57:05;;;;;;;18.05;10.48;;;20.10;34.20;;;;;;5068561;28;20053;-68
2022/12/21 02:59:40;;;;;;;17.15;10.35;;;20.10;34.20;;;;;;5063221;28;20080;-68
2022/12/21 03:02:34;;;;;;;19.70;11.88;;;20.10;34.20;;;;;;5067515;28;20321;-68
2022/12/21 03:05:31;;;;;;;17.88;11.02;;;20.10;34.20;;;;;;5034804;28;20550;-68
2022/12/21 03:08:31;;;;;;;18.25;10.98;;;20.10;34.20;;;;;;5053173;28;20048;-68
2022/12/21 03:11:02;;;;;;;19.23;11.77;;;20.10;34.20;;;;;;5068536;28;20048;-68
2022/12/21 03:13:43;;;;;;;;;;;20.10;34.80;;;;;;5068164;28;20127;-68
2022/12/21 03:16:30;;;;;;;18.73;10.82;;;20.10;34.20;;;;;;5068345;28;20328;-68
2022/12/21 03:19:11;;;;;;;18.77;11.70;;;20.10;34.20;;;;;;5051635;28;20052;-68
2022/12/21 03:21:53;;;;;;;17.75;11.57;;;20.10;34.20;;;;;;5068469;28;20048;-68
2022/12/21 03:24:26;;;;;;;17.60;10.65;;;20.10;34.20;;;;;;5067966;28;20123;-68
2022/12/21 03:27:01;;;;;;;17.90;11.07;;;20.10;34.20;;;;;;5068171;28;20064;-68
2022/12/21 03:29:38;;;;;;;18.45;11.65;;;20.10;34.20;;;;;;5067525;28;20048;-68
2022/12/21 03:32:13;;;;;;;18.33;11.27;;;20.10;34.20;;;;;;5062536;28;20131;-68
2022/12/21 03:34:45;;;;;;;18.73;11.43;;;20.10;34.20;;;;;;5067577;28;20488;-68
2022/12/21 03:37:22;;;;;;;19.63;11.02;;;20.10;34.20;;;;;;5068218;28;20044;-68
2022/12/21 03:39:56;;;;;;;17.88;11.18;;;20.10;34.10;;;;;;5067761;28;20056;-68
2022/12/21 03:42:35;;;;;;;18.17;10.90;;;20.10;34.10;;;;;;5068195;28;20044;-68
2022/12/21 03:45:09;;;;;;;18.67;11.13;;;20.20;34.20;;;;;;5067340;28;20058;-68
2022/12/21 03:47:48;;;;;;;17.50;10.93;;;20.20;34.20;;;;;;5068145;28;20120;-68
2022/12/21 03:50:23;;;;;;;19.23;11.07;;;20.10;34.10;;;;;;5066686;28;20052;-68
2022/12/21 03:53:14;;;;;;;17.65;10.98;;;20.10;34.10;;;;;;5067992;28;20135;-68
2022/12/21 03:55:42;;;;;;;;;;;20.10;34.10;;;;;;5067937;28;20044;-68
2022/12/21 03:58:10;;;;;;;18.65;10.88;;;20.10;34.10;;;;;;5050139;28;19927;-68
2022/12/21 04:00:51;;;;;;;18.73;11.38;;;20.10;34.10;;;;;;5067381;28;20044;-68
2022/12/21 04:03:30;;;;;;;18.45;10.95;;;20.10;34.10;;;;;;5049891;28;20048;-68
2022/12/21 04:06:05;;;;;;;15.82;10.55;;;20.10;34.10;;;;;;5047982;28;20131;-68
2022/12/21 04:08:32;;;;;;;16.17;10.45;;;20.10;34.10;;;;;;5066582;28;20071;-68
2022/12/21 04:10:59;;;;;;;18.15;11.02;;;20.10;34.10;;;;;;5067378;28;20443;-68
2022/12/21 04:13:27;;;;;;;17.80;10.75;;;20.10;34.10;;;;;;5067656;28;20187;-68
2022/12/21 04:16:03;;;;;;;18.30;11.15;;;20.10;34.10;;;;;;5073275;28;20051;-68
2022/12/21 04:21:19;;;;;;;16.95;10.45;;;20.10;34.10;;;;;;5073431;28;20060;-68
2022/12/21 04:29:20;;;;;;;18.35;11.82;;;20.10;34.10;;;;;;5059554;28;20055;-69
2022/12/21 04:31:47;;;;;;;19.30;11.25;;;20.10;34.10;;;;;;5073913;28;20045;-68
2022/12/21 04:34:15;;;;;;;17.83;10.57;;;20.10;34.10;;;;;;5074155;28;20048;-68
2022/12/21 04:39:29;;;;;;;16.60;10.45;;;20.10;34.10;;;;;;5068128;28;20040;-68
2022/12/21 04:41:56;;;;;;;18.48;11.18;;;20.10;34.10;;;;;;5073930;28;20454;-68
2022/12/21 04:44:23;;;;;;;17.33;10.45;;;20.10;34.10;;;;;;5073867;28;20131;-68
2022/12/21 04:46:51;;;;;;;18.13;10.55;;;20.10;34.10;;;;;;5073486;28;20044;-68
2022/12/21 04:49:18;;;;;;;15.82;9.65;;;20.10;34.10;;;;;;5073929;28;20054;-68
2022/12/21 04:51:45;;;;;;;15.20;10.05;;;20.10;34.10;;;;;;5073399;28;20132;-68
2022/12/21 04:54:12;;;;;;;15.98;10.50;;;20.10;34.10;;;;;;5073541;28;20044;-68
2022/12/21 04:56:39;;;;;;;18.67;11.38;;;20.10;34.10;;;;;;5073174;28;20516;-68
2022/12/21 04:59:06;;;;;;;17.50;10.52;;;20.10;34.10;;;;;;5073322;28;20052;-68
2022/12/21 05:01:33;;;;;;;19.85;11.73;;;20.00;34.00;;;;;;5072645;28;20131;-68
2022/12/21 05:04:00;;;;;;;17.85;10.48;;;20.00;34.10;;;;;;5073557;28;20050;-68
2022/12/21 05:06:28;;;;;;;19.23;10.95;;;20.00;34.00;;;;;;5074582;28;20451;-68
2022/12/21 05:08:57;;;;;;;16.15;10.00;;;20.00;34.00;;;;;;5073367;28;20131;-68
2022/12/21 05:11:24;;;;;;;15.90;9.60;;;20.00;34.00;;;;;;5068862;28;20432;-68
2022/12/21 05:13:52;;;;;;;16.80;9.95;;;20.00;34.10;;;;;;5072074;28;20460;-68
2022/12/21 05:16:21;;;;;;;17.42;10.48;;;20.00;34.00;;;;;;5073502;28;20036;-68
2022/12/21 05:18:50;;;;;;;18.53;10.97;;;20.00;34.00;;;;;;5073947;28;20136;-68
2022/12/21 05:21:17;;;;;;;16.90;10.95;;;20.10;34.30;;;;;;5072380;28;20503;-68
2022/12/21 05:23:45;;;;;;;17.98;11.10;;;20.00;34.00;;;;;;5073648;28;20054;-68
2022/12/21 05:26:13;;;;;;;16.05;9.57;;;20.00;34.00;;;;;;5070424;28;20049;-68
2022/12/21 05:28:44;;;;;;;20.05;11.23;;;20.00;34.00;;;;;;5069766;28;20111;-68
2022/12/21 05:31:13;;;;;;;16.58;9.70;;;20.00;34.00;;;;;;5069256;28;20481;-68
2022/12/21 05:33:40;;;;;;;17.58;10.13;;;20.00;34.00;;;;;;5070097;28;20055;-68
2022/12/21 05:36:10;;;;;;;18.00;10.52;;;20.00;34.00;;;;;;5070500;28;20052;-68
2022/12/21 05:38:37;;;;;;;18.48;11.15;;;20.00;34.00;;;;;;5070295;28;20200;-68
2022/12/21 05:41:04;;;;;;;19.45;11.52;;;20.00;33.80;;;;;;5069857;28;20055;-68
2022/12/21 05:43:32;;;;;;;18.45;10.95;;;20.00;33.70;;;;;;5078033;28;20382;-68
2022/12/21 05:46:04;;;;;;;17.48;10.98;;;20.00;33.70;;;;;;5089586;28;20161;-67
2022/12/21 05:48:32;;;;;;;18.00;11.13;;;20.00;33.70;;;;;;5090191;28;20055;-70
2022/12/21 05:50:59;;;;;;;18.55;11.48;;;20.00;33.70;;;;;;5089872;28;20048;-68
2022/12/21 05:53:26;;;;;;;17.60;10.60;;;20.00;33.70;;;;;;5090131;28;20456;-68
2022/12/21 05:55:54;;;;;;;18.00;10.77;;;20.00;33.70;;;;;;5090491;28;20472;-68
2022/12/21 05:58:21;;;;;;;18.38;10.88;;;20.00;33.70;;;;;;5089342;28;20431;-68
2022/12/21 06:00:48;;;;;;;18.80;11.50;;;20.10;33.70;;;;;;5089606;28;20173;-68
2022/12/21 06:03:15;;;;;;;16.08;10.05;;;20.10;33.70;;;;;;5090114;28;20471;-68
2022/12/21 06:05:42;;;;;;;17.80;10.55;;;20.10;33.70;;;;;;5089616;28;20048;-68
2022/12/21 06:08:09;;;;;;;17.17;10.70;;;20.20;33.80;;;;;;5073255;28;20056;-68
2022/12/21 06:10:37;;;;;;;17.38;10.90;;;20.20;33.70;;;;;;5069617;28;20044;-68
2022/12/21 06:13:05;;;;;;;15.77;9.68;;;20.20;33.70;;;;;;5070983;28;20044;-68
2022/12/21 06:15:33;;;;;;;16.65;10.40;;;20.20;33.60;;;;;;5065547;28;20048;-68
2022/12/21 06:18:01;;;;;;;16.77;10.55;;;20.30;33.60;;;;;;5070814;28;20052;-68
2022/12/21 06:20:32;;;;;;;19.13;11.20;;;20.30;33.50;;;;;;5065979;28;20052;-64
2022/12/21 06:22:59;;;;;;;17.75;10.75;;;20.30;33.50;;;;;;5069291;28;20054;-65
2022/12/21 06:25:26;;;;;;;16.23;10.32;;;20.30;33.50;;;;;;5051157;28;20048;-63
2022/12/21 06:27:54;;;;;;;18.63;11.13;;;20.40;33.80;;;;;;5061373;28;20138;-72
2022/12/21 06:30:21;;;;;;;15.90;10.60;;;20.40;33.80;;;;;;5064207;28;20132;-65
2022/12/21 06:32:48;;;;;;;17.80;10.80;;;20.40;33.80;;;;;;5061406;28;20408;-66
2022/12/21 06:35:17;;;;;;;16.90;10.98;;;20.40;33.80;;;;;;5063008;28;20044;-68
2022/12/21 06:37:44;;;;;;;16.48;10.50;;;20.50;33.80;;;;;;5063298;28;20048;-67
2022/12/21 06:40:12;;;;;;;19.25;12.23;;;20.60;33.80;;;;;;5067094;28;20048;-71
2022/12/21 06:42:40;;;;;;;17.33;11.07;;;20.60;34.00;;;;;;5063235;28;20046;-72
2022/12/21 06:45:07;;;;;;;19.48;11.90;;;20.60;34.30;;;;;;5061964;28;20148;-70
2022/12/21 06:47:34;;;;;;;17.92;11.27;;;20.70;34.50;;;;;;5039531;28;20044;-68
2022/12/21 06:50:01;;;;;;;18.10;11.70;;;20.70;34.60;;;;;;5060326;28;20049;-68
2022/12/21 06:52:28;;;;;;;17.73;10.50;;;20.70;34.70;;;;;;5066126;28;20048;-69
2022/12/21 06:54:56;;;;;;;17.83;11.15;;;20.80;34.60;;;;;;5066089;28;20570;-76
2022/12/21 06:57:23;;;;;;;17.02;10.88;;;20.90;34.50;;;;;;5065160;28;20472;-71
2022/12/21 06:59:51;;;;;;;19.10;11.43;;;20.90;34.50;;;;;;5060295;28;20116;-75
2022/12/21 07:02:18;;;;;;;20.20;11.73;;;21.00;34.40;;;;;;5063328;28;20127;-68
2022/12/21 07:04:45;;;;;;;18.08;11.50;;;21.00;34.20;;;;;;5063382;28;20135;-67
2022/12/21 07:07:13;;;;;;;21.73;12.38;;;21.00;34.10;;;;;;5064861;28;20483;-65
2022/12/21 07:09:40;;;;;;;18.90;11.52;;;21.10;33.90;;;;;;5061464;28;20045;-66
2022/12/21 07:12:07;;;;;;;21.30;12.85;;;21.10;33.90;;;;;;5061258;28;20083;-66
2022/12/21 07:14:34;;;;;;;22.45;12.13;;;21.10;33.80;;;;;;5062736;28;20063;-63
2022/12/21 07:17:01;;;;;;;21.17;13.02;;;21.10;33.90;;;;;;5060721;28;20131;-65
2022/12/21 07:19:29;;;;;;;20.27;12.48;;;21.20;34.20;;;;;;5062656;28;20087;-68
2022/12/21 07:21:56;;;;;;;20.17;12.75;;;21.20;34.40;;;;;;5065386;28;20119;-71
2022/12/21 07:24:23;;;;;;;22.48;13.30;;;21.20;34.60;;;;;;5061695;28;20040;-72
2022/12/21 07:26:50;;;;;;;24.58;13.82;;;21.30;34.50;;;;;;5056638;28;20052;-76
2022/12/21 07:29:17;;;;;;;23.85;14.95;;;21.30;34.20;;;;;;5057796;28;20046;-73
2022/12/21 07:31:46;;;;;;;23.50;14.38;;;21.30;34.00;;;;;;5057407;28;20055;-75
2022/12/21 07:34:13;;;;;;;24.25;15.70;;;21.40;34.00;;;;;;5058259;28;20519;-72
2022/12/21 07:36:40;;;;;;;26.65;15.98;;;21.40;33.90;;;;;;5058575;28;20052;-77
2022/12/21 07:39:07;;;;;;;26.90;15.65;;;21.40;33.90;;;;;;5044450;28;20090;-71
2022/12/21 07:41:34;;;;;;;25.63;15.77;;;21.40;33.80;;;;;;5061514;28;20052;-78
2022/12/21 07:44:02;;;;;;;25.85;15.27;;;21.40;33.70;;;;;;5063504;28;20124;-73
2022/12/21 07:46:29;;;;;;;26.42;15.32;;;21.40;33.80;;;;;;5061406;28;20132;-74
2022/12/21 07:48:56;;;;;;;25.65;15.98;;;21.40;33.70;;;;;;5062920;28;20140;-73
2022/12/21 07:51:23;;;;;;;25.75;15.45;;;21.50;33.70;;;;;;5064155;28;20132;-68
2022/12/21 07:53:51;;;;;;;25.17;16.10;;;21.50;33.90;;;;;;5062722;28;20060;-77
2022/12/21 07:56:19;;;;;;;26.88;14.90;;;21.50;34.10;;;;;;5064823;28;20113;-69
2022/12/21 07:58:46;;;;;;;24.25;15.07;;;21.60;34.30;;;;;;5064040;28;20123;-68
2022/12/21 08:01:16;;;;;;;28.67;16.02;;;21.60;34.30;;;;;;5061581;28;20425;-72
2022/12/21 08:03:45;;;;;;;26.00;15.25;;;21.60;34.50;;;;;;5046528;28;20048;-70
2022/12/21 08:06:14;;;;;;;28.00;17.23;;;21.70;34.60;;;;;;5063549;28;20127;-71
2022/12/21 08:08:41;;;;;;;27.20;16.20;;;21.70;34.60;;;;;;5061845;28;20044;-67
2022/12/21 08:11:15;;;;;;;27.20;15.15;;;21.80;34.60;;;;;;5060849;28;20044;-75
2022/12/21 08:13:42;;;;;;;27.17;15.73;;;21.80;34.70;;;;;;5059546;28;20044;-71
2022/12/21 08:16:12;;;;;;;25.95;16.10;;;21.90;34.80;;;;;;5065340;28;20045;-75
2022/12/21 08:18:39;;;;;;;29.42;16.42;;;21.90;35.00;;;;;;5056811;28;20060;-70
2022/12/21 08:21:07;;;;;;;28.02;16.40;;;21.90;34.80;;;;;;5061995;28;20127;-67
2022/12/21 08:23:34;;;;;;;23.55;15.73;;;22.00;34.80;;;;;;5061833;28;20127;-72
2022/12/21 08:26:02;;;;;;;27.70;17.17;;;22.00;34.70;;;;;;5059173;28;20452;-68
2022/12/21 08:28:30;;;;;;;27.35;16.60;;;22.10;34.40;;;;;;5065099;28;20052;-73
2022/12/21 08:31:03;;;;;;;25.15;16.27;;;22.10;34.40;;;;;;5063048;28;20055;-73
2022/12/21 08:33:31;;;;;;;27.33;15.57;;;22.10;34.40;;;;;;5063299;28;20135;-71
2022/12/21 08:35:58;;;;;;;27.52;16.67;;;22.20;34.40;;;;;;5054514;28;20060;-72
2022/12/21 08:38:25;;;;;;;25.88;15.18;;;22.20;34.50;;;;;;5047242;28;20040;-72
2022/12/21 08:41:12;;;;;;;26.05;16.00;;;22.20;34.30;;;;;;5061725;28;20048;-66
2022/12/21 08:43:40;;;;;;;26.20;16.17;;;22.30;34.30;;;;;;5061580;28;20041;-74
2022/12/21 08:46:09;;;;;;;30.67;17.17;;;22.30;34.30;;;;;;5045372;28;20055;-74
2022/12/21 08:48:38;;;;;;;29.55;17.38;;;22.30;34.10;;;;;;5062787;28;20552;-72
2022/12/21 08:51:07;;;;;;;28.38;17.45;;;22.40;34.00;;;;;;5059871;28;20053;-73
2022/12/21 08:53:35;;;;;;;27.85;17.30;;;22.40;34.00;;;;;;5059764;28;20056;-71
2022/12/21 08:56:03;;;;;;;28.35;17.77;;;22.50;34.20;;;;;;5057991;28;20162;-71
2022/12/21 08:58:31;;;;;;;32.15;18.42;;;22.40;34.20;;;;;;5059846;28;20114;-78
2022/12/21 09:00:58;;;;;;;28.85;18.33;;;22.50;34.00;;;;;;5072911;28;20139;-70
2022/12/21 09:03:26;;;;;;;29.80;18.65;;;22.50;33.70;;;;;;5064352;28;20507;-69
2022/12/21 09:05:59;;;;;;;29.60;18.25;;;22.60;33.70;;;;;;5062633;28;20044;-75
2022/12/21 09:08:34;;;;;;;;;;;22.60;34.00;;;;;;5065529;28;20076;-68
2022/12/21 09:11:04;;;;;;;30.75;18.17;;;22.60;34.00;;;;;;5064949;28;20007;-73
2022/12/21 09:13:31;;;;;;;31.98;19.48;;;22.60;34.10;;;;;;5060423;28;20489;-76
2022/12/21 09:15:59;;;;;;;30.10;18.38;;;22.70;34.20;;;;;;5061535;28;20073;-74
2022/12/21 09:18:26;;;;;;;34.17;18.83;;;22.70;34.20;;;;;;5066130;28;20045;-77
2022/12/21 09:20:59;;;;;;;27.10;16.75;;;22.70;34.20;;;;;;5065898;28;20102;-71
2022/12/21 09:23:26;;;;;;;31.17;17.85;;;22.70;34.30;;;;;;5064840;28;20080;-75
2022/12/21 09:25:53;;;;;;;33.97;18.70;;;22.80;34.20;;;;;;5064470;28;20596;-74
2022/12/21 09:28:21;;;;;;;30.23;18.67;;;22.80;34.30;;;;;;5063932;28;20048;-73
2022/12/21 09:30:48;;;;;;;27.67;18.00;;;22.80;34.30;;;;;;5065526;28;20052;-68
2022/12/21 09:33:15;;;;;;;32.20;17.40;;;22.80;34.20;;;;;;5065971;28;21364;-69
2022/12/21 09:35:42;;;;;;;29.48;17.73;;;22.80;34.00;;;;;;5066961;28;20118;-80
2022/12/21 09:38:09;;;;;;;29.27;18.67;;;22.80;33.90;;;;;;5044423;28;20447;-76
2022/12/21 09:40:36;;;;;;;34.17;19.65;;;22.90;33.80;;;;;;5063258;28;20056;-72
2022/12/21 09:43:29;;;;;;;30.17;18.35;;;22.90;33.60;;;;;;5048095;28;20076;-67
2022/12/21 09:46:08;;;;;;;30.63;18.52;;;22.90;33.50;;;;;;5062894;28;20152;-73
2022/12/21 09:48:49;;;;;;;27.33;17.33;;;22.90;33.40;;;;;;5062877;28;20772;-79
2022/12/21 09:51:24;;;;;;;30.80;18.10;;;23.00;33.40;;;;;;5060064;28;20075;-77
2022/12/21 09:54:17;;;;;;;29.15;19.35;;;22.90;33.30;;;;;;5064211;28;20044;-74
2022/12/21 09:56:49;;;;;;;29.38;18.88;;;22.90;33.40;;;;;;5063246;28;20048;-70
2022/12/21 09:59:19;;;;;;;29.95;17.50;;;23.00;33.30;;;;;;5063721;28;20109;-73
2022/12/21 10:02:11;;;;;;;26.00;17.40;;;23.00;33.30;;;;;;5063318;28;20062;-70
2022/12/21 10:05:19;;;;;;;30.20;18.48;;;23.00;33.30;;;;;;5048293;28;20575;-68
2022/12/21 10:08:17;;;;;;;30.35;18.23;;;23.00;33.20;;;;;;5046448;28;20132;-70
2022/12/21 10:11:00;;;;;;;28.58;18.80;;;23.00;33.30;;;;;;5043627;28;20068;-73
2022/12/21 10:13:53;;;;;;;34.05;19.77;;;23.00;33.20;;;;;;5040504;28;20059;-73
2022/12/21 10:16:55;;;;;;;27.77;18.58;;;23.00;33.00;;;;;;5059200;28;20135;-75
2022/12/21 10:20:12;;;;;;;30.15;18.63;;;23.00;33.00;;;;;;5059234;28;20137;-72
2022/12/21 10:22:48;;;;;;;33.60;20.13;;;23.00;32.90;;;;;;5062142;28;20131;-74
2022/12/21 10:25:22;;;;;;;31.08;19.55;;;23.00;32.80;;;;;;5057769;28;20087;-74
2022/12/21 10:28:00;;;;;;;29.60;18.70;;;23.00;32.80;;;;;;5064074;28;20048;-69
2022/12/21 10:30:30;;;;;;;30.50;18.55;;;23.00;32.80;;;;;;5060878;28;20044;-69
2022/12/21 10:32:58;;;;;;;;;;;23.10;33.20;;;;;;5063589;28;20055;-71
2022/12/21 10:35:37;;;;;;;29.85;18.52;;;23.10;33.40;;;;;;5064459;28;19951;-69
2022/12/21 10:38:13;;;;;;;30.48;18.92;;;23.10;33.40;;;;;;5066345;28;20055;-70
2022/12/21 10:40:43;;;;;;;30.40;18.88;;;23.10;33.50;;;;;;5061448;28;20080;-67
2022/12/21 10:43:12;;;;;;;29.20;18.10;;;23.10;33.40;;;;;;5064139;28;20052;-72
2022/12/21 10:45:40;;;;;;;32.80;17.40;;;23.10;33.40;;;;;;5064631;28;20484;-71
2022/12/21 10:48:07;;;;;;;32.00;19.13;;;23.20;33.40;;;;;;5066768;28;20060;-71
2022/12/21 10:50:43;;;;;;;28.17;18.00;;;23.20;33.50;;;;;;5065940;28;20040;-69
2022/12/21 10:53:26;;;;;;;29.95;17.70;;;23.20;33.50;;;;;;5063686;28;20440;-69
2022/12/21 10:55:59;;;;;;;26.23;16.95;;;23.20;33.40;;;;;;5044645;28;20095;-72
2022/12/21 10:58:29;;;;;;;27.15;18.05;;;23.20;33.40;;;;;;5062679;28;20040;-69
2022/12/21 11:01:16;;;;;;;25.98;16.85;;;23.30;33.50;;;;;;5060295;28;20048;-72
2022/12/21 11:03:43;;;;;;;30.35;17.95;;;23.30;33.50;;;;;;5049430;28;20052;-74
2022/12/21 11:06:17;;;;;;;29.00;18.08;;;23.30;33.20;;;;;;5066325;28;20051;-74
2022/12/21 11:08:52;;;;;;;30.08;16.33;;;23.30;33.00;;;;;;5062177;28;20083;-72
2022/12/21 11:11:32;;;;;;;31.02;18.02;;;23.30;32.90;;;;;;5065803;28;20049;-72
2022/12/21 11:14:14;;;;;;;27.85;18.52;;;23.30;32.80;;;;;;5065459;28;20875;-72
2022/12/21 11:16:44;;;;;;;28.33;17.05;;;23.30;32.70;;;;;;5063866;28;20132;-75
2022/12/21 11:19:14;;;;;;;27.60;17.52;;;23.30;32.60;;;;;;5068363;28;20095;-73
2022/12/21 11:21:51;;;;;;;29.50;17.70;;;23.30;32.50;;;;;;5065759;28;20054;-76
2022/12/21 11:24:30;;;;;;;27.63;17.67;;;23.30;32.40;;;;;;5063226;28;20053;-78
2022/12/21 11:27:01;;;;;;;29.38;17.08;;;23.30;32.30;;;;;;5065413;28;20066;-72
2022/12/21 11:29:42;;;;;;;28.45;17.98;;;23.30;32.30;;;;;;5063517;28;20043;-73
2022/12/21 11:32:12;;;;;;;28.90;17.88;;;23.30;32.30;;;;;;5062364;28;20054;-71
2022/12/21 11:34:55;;;;;;;27.85;17.67;;;23.30;32.20;;;;;;5063477;28;20234;-73
2022/12/21 11:37:49;;;;;;;29.38;19.33;;;23.20;32.20;;;;;;5062471;28;20048;-74
2022/12/21 11:40:22;;;;;;;27.20;17.88;;;23.30;32.30;;;;;;5051133;28;20399;-75
2022/12/21 11:43:16;;;;;;;31.83;18.63;;;23.20;32.20;;;;;;5064315;28;20076;-75
2022/12/21 11:46:09;;;;;;;28.48;17.98;;;23.20;32.20;;;;;;5064596;28;20090;-74
2022/12/21 11:49:22;;;;;;;29.88;18.15;;;23.20;32.30;;;;;;5054724;28;20067;-74
2022/12/21 11:52:13;;;;;;;25.88;17.90;;;23.20;32.40;;;;;;5066953;28;20056;-78
2022/12/21 11:55:12;;;;;;;31.08;19.27;;;23.20;32.50;;;;;;5065579;28;20489;-76
2022/12/21 11:58:19;;;;;;;34.33;18.75;;;23.10;32.40;;;;;;5078508;28;20056;-75
2022/12/21 12:01:11;;;;;;;28.95;18.42;;;23.10;32.40;;;;;;5063088;28;20123;-75
2022/12/21 12:03:51;;;;;;;28.52;17.25;;;23.10;32.40;;;;;;5063330;28;20058;-76
2022/12/21 12:06:51;;;;;;;25.67;17.57;;;23.10;32.50;;;;;;5063430;28;20064;-75
2022/12/21 12:09:52;;;;;;;29.48;19.10;;;23.10;32.50;;;;;;5063005;28;20297;-75
2022/12/21 12:12:36;;;;;;;26.33;18.00;;;23.00;32.50;;;;;;5046759;28;20076;-75
2022/12/21 12:15:21;;;;;;;29.00;18.73;;;23.00;32.50;;;;;;5057403;28;20590;-76
2022/12/21 12:18:28;;;;;;;28.77;18.23;;;23.00;32.50;;;;;;5040025;28;20152;-75
2022/12/21 12:21:22;;;;;;;28.77;17.67;;;23.00;32.50;;;;;;5059911;28;20080;-76
2022/12/21 12:24:19;;;;;;;27.15;16.88;;;23.00;32.60;;;;;;5060908;28;20095;-73
2022/12/21 12:27:10;;;;;;;34.88;19.55;;;23.00;32.70;;;;;;5063901;28;20499;-73
2022/12/21 12:30:07;;;;;;;28.20;18.15;;;23.10;32.70;;;;;;5047292;28;20113;-76
2022/12/21 12:32:52;;;;;;;29.33;18.25;;;23.00;32.70;;;;;;5059448;28;20136;-76
2022/12/21 12:35:59;;;;;;;27.15;17.77;;;23.00;32.70;;;;;;5065785;28;20619;-75
2022/12/21 12:38:41;;;;;;;29.20;18.27;;;23.00;32.80;;;;;;5050685;28;20127;-74
2022/12/21 12:41:37;;;;;;;26.63;16.42;;;23.10;32.80;;;;;;5064966;28;20512;-75
2022/12/21 12:44:30;;;;;;;25.33;16.90;;;23.10;32.80;;;;;;5061320;28;20048;-75
2022/12/21 12:47:11;;;;;;;27.35;17.55;;;23.10;32.80;;;;;;5061171;28;20144;-72
2022/12/21 12:50:00;;;;;;;26.65;17.10;;;23.10;32.80;;;;;;5059714;28;20055;-72
2022/12/21 12:53:07;;;;;;;26.05;16.40;;;23.10;32.90;;;;;;5062044;28;20501;-76
2022/12/21 12:56:00;;;;;;;25.52;15.85;;;23.10;33.20;;;;;;5064837;28;20123;-75
2022/12/21 12:58:44;;;;;;;27.25;17.25;;;23.10;33.70;;;;;;5064061;28;20040;-74
2022/12/21 13:01:27;;;;;;;25.53;15.83;;;23.10;33.70;;;;;;5061507;28;20552;-71
2022/12/21 13:04:24;;;;;;;26.77;16.92;;;23.20;33.80;;;;;;5064929;28;20051;-76
2022/12/21 13:07:32;;;;;;;25.20;16.15;;;23.20;33.50;;;;;;5052847;28;20040;-74
2022/12/21 13:10:27;;;;;;;23.65;15.35;;;23.20;33.30;;;;;;5063215;28;20447;-72
2022/12/21 13:13:23;;;;;;;27.40;15.43;;;23.20;33.70;;;;;;5065073;28;20562;-72
2022/12/21 13:16:14;;;;;;;22.33;15.23;;;23.20;34.00;;;;;;5065302;28;20051;-71
2022/12/21 13:18:49;;;;;;;26.58;16.10;;;23.20;33.90;;;;;;5063154;28;20090;-75